Time;durP1;ratioP1;P1;durP2;ratioP2;P2;SDS_P1;SDS_P2;PMS_P1;PMS_P2;Temp;Humidity;BMP_temperature;BMP_pressure;BME280_temperature;BME280_humidity;BME280_pressure;Samples;Min_cycle;Max_cycle;Signal;HPM_P1;HPM_P2
2021/05/07 00:01:00;;;;;;;;;;;20.50;35.20;;;;;;5053511;28;76373;-64
2021/05/07 00:03:26;;;;;;;;;;;20.40;35.40;;;;;;5053511;28;75454;-65
2021/05/07 00:05:55;;;;;;;;;;;20.40;35.40;;;;;;5054900;28;74989;-65
2021/05/07 00:08:31;;;;;;;;;;;20.40;35.40;;;;;;5053428;28;78179;-64
2021/05/07 00:10:58;;;;;;;;;;;20.40;35.70;;;;;;5053364;28;78018;-64
2021/05/07 00:13:23;;;;;;;;;;;20.40;36.00;;;;;;5054782;28;74430;-65
2021/05/07 00:15:49;;;;;;;;;;;20.40;36.10;;;;;;5055110;28;75168;-64
2021/05/07 00:18:15;;;;;;;;;;;20.30;36.30;;;;;;5055267;28;74340;-64
2021/05/07 00:20:40;;;;;;;;;;;20.40;36.60;;;;;;5053390;28;75403;-65
2021/05/07 00:23:06;;;;;;;;;;;20.30;36.80;;;;;;5053430;28;77459;-66
2021/05/07 00:25:32;;;;;;;;;;;20.30;37.00;;;;;;5052947;28;78310;-65
2021/05/07 00:28:01;;;;;;;;;;;20.30;37.20;;;;;;5053570;28;77364;-66
2021/05/07 00:30:27;;;;;;;;;;;20.30;37.30;;;;;;5054083;28;75204;-66
2021/05/07 00:32:53;;;;;;;;;;;20.30;37.70;;;;;;5053728;28;75220;-67
2021/05/07 00:35:19;;;;;;;;;;;20.20;37.80;;;;;;5053579;28;76609;-64
2021/05/07 00:37:44;;;;;;;;;;;20.20;38.10;;;;;;5053109;28;76864;-65
2021/05/07 00:40:10;;;;;;;;;;;20.20;38.40;;;;;;5052821;28;77214;-67
2021/05/07 00:42:36;;;;;;;;;;;20.10;38.60;;;;;;5052378;28;75477;-67
2021/05/07 00:45:01;;;;;;;;;;;20.10;38.90;;;;;;5054870;28;74383;-64
2021/05/07 00:47:27;;;;;;;;;;;20.00;39.00;;;;;;5054492;28;75030;-64
2021/05/07 00:49:53;;;;;;;;;;;20.10;39.50;;;;;;5052707;28;75661;-65
2021/05/07 00:52:19;;;;;;;;;;;20.00;39.30;;;;;;5052288;27;75544;-65
2021/05/07 00:54:44;;;;;;;;;;;20.00;39.70;;;;;;5044315;28;75386;-64
2021/05/07 00:57:10;;;;;;;;;;;20.00;39.90;;;;;;5039716;28;76733;-66
2021/05/07 00:59:36;;;;;;;;;;;20.00;39.90;;;;;;5044579;28;77897;-65
2021/05/07 01:02:02;;;;;;;;;;;19.90;40.30;;;;;;5052649;28;75449;-63
2021/05/07 01:04:27;;;;;;;;;;;19.90;40.20;;;;;;5054384;28;74903;-65
2021/05/07 01:06:53;;;;;;;;;;;19.90;40.40;;;;;;5040292;28;74972;-65
2021/05/07 01:09:19;;;;;;;;;;;19.90;40.60;;;;;;5032246;28;75338;-64
2021/05/07 01:11:45;;;;;;;;;;;19.90;40.70;;;;;;5033690;28;75126;-66
2021/05/07 01:14:11;;;;;;;;;;;19.90;40.90;;;;;;5032724;28;77476;-64
2021/05/07 01:16:36;;;;;;;;;;;19.90;41.50;;;;;;5032111;28;77291;-64
2021/05/07 01:19:04;;;;;;;;;;;19.80;41.10;;;;;;5033804;28;75027;-62
2021/05/07 01:21:29;;;;;;;;;;;19.70;41.30;;;;;;5032365;28;75437;-65
2021/05/07 01:23:55;;;;;;;;;;;19.70;41.60;;;;;;5033597;28;75085;-63
2021/05/07 01:26:21;;;;;;;;;;;19.70;41.70;;;;;;5033595;28;74462;-64
2021/05/07 01:28:46;;;;;;;;;;;19.70;41.70;;;;;;5032104;28;76540;-65
2021/05/07 01:31:12;;;;;;;;;;;19.70;41.80;;;;;;5032025;28;75567;-68
2021/05/07 01:33:38;;;;;;;;;;;19.60;42.00;;;;;;5031972;28;74610;-65
2021/05/07 01:36:04;;;;;;;;;;;19.60;42.30;;;;;;5032334;28;77503;-66
2021/05/07 01:38:29;;;;;;;;;;;19.60;42.50;;;;;;5031858;28;76296;-67
2021/05/07 01:40:55;;;;;;;;;;;19.60;42.50;;;;;;5032917;28;75617;-67
2021/05/07 01:43:21;;;;;;;;;;;19.50;42.40;;;;;;5032805;28;75272;-67
2021/05/07 01:45:47;;;;;;;;;;;19.60;42.50;;;;;;5033735;28;74482;-65
2021/05/07 01:48:13;;;;;;;;;;;19.50;42.70;;;;;;5031683;28;75420;-68
2021/05/07 01:50:40;;;;;;;;;;;19.50;43.00;;;;;;5031796;28;76888;-69
2021/05/07 01:53:06;;;;;;;;;;;19.50;43.10;;;;;;5033114;28;75256;-68
2021/05/07 01:55:33;;;;;;;;;;;19.40;43.30;;;;;;5031469;28;74483;-65
2021/05/07 01:58:00;;;;;;;;;;;19.40;43.60;;;;;;5033018;28;75283;-65
2021/05/07 02:00:26;;;;;;;;;;;19.30;43.70;;;;;;5031433;28;75739;-66
2021/05/07 02:02:52;;;;;;;;;;;19.20;43.90;;;;;;5032913;28;75422;-63
2021/05/07 02:05:18;;;;;;;;;;;19.20;44.00;;;;;;5032859;28;75728;-66
2021/05/07 02:07:48;;;;;;;;;;;19.20;44.30;;;;;;5032795;28;74800;-64
2021/05/07 02:10:15;;;;;;;;;;;19.10;44.40;;;;;;5032473;28;74799;-66
2021/05/07 02:12:41;;;;;;;;;;;19.00;44.80;;;;;;5031539;28;75311;-63
2021/05/07 02:15:08;;;;;;;;;;;19.00;44.70;;;;;;5033263;28;74562;-63
2021/05/07 02:17:33;;;;;;;;;;;18.90;44.70;;;;;;5031354;28;75568;-63
2021/05/07 02:19:59;;;;;;;;;;;19.00;44.80;;;;;;5032697;28;75026;-64
2021/05/07 02:22:24;;;;;;;;;;;19.00;44.80;;;;;;5031248;28;76660;-65
2021/05/07 02:24:50;;;;;;;;;;;18.90;45.00;;;;;;5032457;28;75500;-69
2021/05/07 02:27:15;;;;;;;;;;;18.90;45.10;;;;;;5031064;28;74607;-65
2021/05/07 02:29:41;;;;;;;;;;;18.90;45.10;;;;;;5032928;28;75190;-64
2021/05/07 02:32:07;;;;;;;;;;;18.90;45.30;;;;;;5032439;28;75683;-68
2021/05/07 02:34:32;;;;;;;;;;;18.90;45.50;;;;;;5032641;28;75037;-64
2021/05/07 02:36:58;;;;;;;;;;;18.90;45.60;;;;;;5030796;28;75377;-64
2021/05/07 02:39:24;;;;;;;;;;;18.90;45.50;;;;;;5031064;28;76180;-67
2021/05/07 02:41:49;;;;;;;;;;;18.80;45.80;;;;;;5032385;28;75714;-64
2021/05/07 02:44:15;;;;;;;;;;;18.80;45.90;;;;;;5030658;28;75332;-64
2021/05/07 02:46:41;;;;;;;;;;;18.70;46.00;;;;;;5032517;28;74912;-64
2021/05/07 02:49:06;;;;;;;;;;;18.70;46.30;;;;;;5032160;28;75314;-66
2021/05/07 02:51:33;;;;;;;;;;;18.70;46.40;;;;;;5030873;28;76140;-65
2021/05/07 02:53:59;;;;;;;;;;;18.60;46.60;;;;;;5030628;28;77160;-64
2021/05/07 02:56:25;;;;;;;;;;;18.50;46.70;;;;;;5035834;28;75182;-64
2021/05/07 02:58:51;;;;;;;;;;;18.50;46.80;;;;;;5034777;28;75491;-66
2021/05/07 03:01:17;;;;;;;;;;;18.50;47.10;;;;;;5034194;28;76322;-63
2021/05/07 03:03:42;;;;;;;;;;;18.40;47.20;;;;;;5034240;28;76544;-64
2021/05/07 03:06:08;;;;;;;;;;;18.40;47.50;;;;;;5035745;28;74788;-65
2021/05/07 03:08:33;;;;;;;;;;;18.30;47.60;;;;;;5036721;28;74400;-66
2021/05/07 03:10:59;;;;;;;;;;;18.40;47.80;;;;;;5034011;28;74477;-67
2021/05/07 03:13:25;;;;;;;;;;;18.40;47.60;;;;;;5033944;28;75885;-65
2021/05/07 03:15:50;;;;;;;;;;;18.40;47.70;;;;;;5035902;28;75111;-66
2021/05/07 03:18:17;;;;;;;;;;;18.30;47.90;;;;;;5035983;28;75055;-66
2021/05/07 03:20:43;;;;;;;;;;;18.20;48.20;;;;;;5034055;28;77574;-65
2021/05/07 03:23:08;;;;;;;;;;;18.20;48.20;;;;;;5033875;28;78116;-67
2021/05/07 03:25:34;;;;;;;;;;;18.20;48.40;;;;;;5035510;28;74676;-66
2021/05/07 03:28:00;;;;;;;;;;;18.20;48.40;;;;;;5035685;28;75427;-66
2021/05/07 03:30:25;;;;;;;;;;;18.20;48.80;;;;;;5033949;28;75591;-66
2021/05/07 03:32:51;;;;;;;;;;;18.20;48.60;;;;;;5034099;28;77196;-66
2021/05/07 03:35:17;;;;;;;;;;;18.10;48.90;;;;;;5035954;28;76046;-65
2021/05/07 03:37:42;;;;;;;;;;;18.10;49.10;;;;;;5033888;28;75534;-63
2021/05/07 03:40:08;;;;;;;;;;;18.10;49.10;;;;;;5033701;28;75541;-67
2021/05/07 03:42:34;;;;;;;;;;;18.00;49.30;;;;;;5033859;28;77367;-68
2021/05/07 03:44:59;;;;;;;;;;;18.00;49.50;;;;;;5034109;28;75740;-65
2021/05/07 03:47:25;;;;;;;;;;;17.90;49.70;;;;;;5033566;28;75280;-65
2021/05/07 03:49:51;;;;;;;;;;;17.80;49.90;;;;;;5033843;28;76517;-66
2021/05/07 03:52:16;;;;;;;;;;;17.80;50.20;;;;;;5033776;28;76207;-66
2021/05/07 03:54:44;;;;;;;;;;;17.80;50.00;;;;;;5035321;28;75028;-64
2021/05/07 03:57:10;;;;;;;;;;;17.80;50.30;;;;;;5033547;28;77389;-65
2021/05/07 03:59:36;;;;;;;;;;;17.70;50.20;;;;;;5033836;28;77001;-63
2021/05/07 04:02:01;;;;;;;;;;;17.70;50.50;;;;;;5033195;28;76298;-64
2021/05/07 04:04:27;;;;;;;;;;;17.70;50.60;;;;;;5034862;28;74900;-64
2021/05/07 04:06:53;;;;;;;;;;;17.60;50.50;;;;;;5032730;28;77071;-64
2021/05/07 04:09:21;;;;;;;;;;;17.70;50.50;;;;;;5034350;27;75722;-64
2021/05/07 04:14:12;;;;;;;;;;;17.70;50.60;;;;;;5051640;27;75141;-63
2021/05/07 04:16:38;;;;;;;;;;;17.70;50.60;;;;;;5042434;28;75441;-63
2021/05/07 04:19:03;;;;;;;;;;;17.60;50.70;;;;;;5041491;27;75091;-65
2021/05/07 04:21:29;;;;;;;;;;;17.60;50.80;;;;;;5044933;28;75178;-66
2021/05/07 04:23:55;;;;;;;;;;;17.60;50.80;;;;;;5034127;28;75699;-69
2021/05/07 04:26:20;;;;;;;;;;;17.50;50.70;;;;;;5052910;28;75364;-65
2021/05/07 04:28:46;;;;;;;;;;;17.50;51.00;;;;;;5054824;28;75199;-65
2021/05/07 04:31:12;;;;;;;;;;;17.50;51.00;;;;;;5055206;28;74421;-66
2021/05/07 04:33:37;;;;;;;;;;;17.50;51.10;;;;;;5053080;28;75425;-65
2021/05/07 04:36:03;;;;;;;;;;;17.50;51.10;;;;;;5045104;28;75996;-64
2021/05/07 04:38:29;;;;;;;;;;;17.50;51.20;;;;;;5032653;28;75702;-64
2021/05/07 04:40:54;;;;;;;;;;;17.40;51.10;;;;;;5032529;28;77391;-64
2021/05/07 04:43:20;;;;;;;;;;;17.40;51.00;;;;;;5032668;28;76682;-67
2021/05/07 04:45:46;;;;;;;;;;;17.40;51.20;;;;;;5034560;28;74724;-66
2021/05/07 04:48:12;;;;;;;;;;;17.40;51.20;;;;;;5032689;28;76532;-65
2021/05/07 04:50:37;;;;;;;;;;;17.40;51.20;;;;;;5032395;28;74672;-65
2021/05/07 04:53:03;;;;;;;;;;;17.40;51.40;;;;;;5032506;28;77220;-64
2021/05/07 04:55:29;;;;;;;;;;;17.40;51.30;;;;;;5032134;28;74567;-65
2021/05/07 04:57:54;;;;;;;;;;;17.30;51.20;;;;;;5034107;28;75239;-66
2021/05/07 05:00:20;;;;;;;;;;;17.20;51.30;;;;;;5041236;28;78056;-63
2021/05/07 05:02:46;;;;;;;;;;;17.20;51.30;;;;;;5050940;28;75167;-65
2021/05/07 05:05:12;;;;;;;;;;;17.20;51.50;;;;;;5048210;28;75325;-64
2021/05/07 05:07:45;;;;;;;;;;;17.30;51.60;;;;;;5046963;27;75829;-62
2021/05/07 05:10:11;;;;;;;;;;;17.30;51.50;;;;;;5049640;28;77559;-62
2021/05/07 05:12:37;;;;;;;;;;;17.20;51.80;;;;;;5051035;28;75061;-62
2021/05/07 05:15:02;;;;;;;;;;;17.30;51.70;;;;;;5051189;28;75103;-60
2021/05/07 05:17:29;;;;;;;;;;;17.20;51.50;;;;;;5048541;27;75370;-62
2021/05/07 05:19:55;;;;;;;;;;;17.20;51.90;;;;;;5050778;28;75309;-61
2021/05/07 05:22:20;;;;;;;;;;;17.30;52.00;;;;;;5050525;28;76243;-62
2021/05/07 05:24:46;;;;;;;;;;;17.20;52.00;;;;;;5050947;28;75022;-61
2021/05/07 05:27:11;;;;;;;;;;;17.20;52.00;;;;;;5049665;28;77259;-61
2021/05/07 05:29:37;;;;;;;;;;;17.20;52.20;;;;;;5050535;28;75268;-61
2021/05/07 05:32:03;;;;;;;;;;;17.20;52.10;;;;;;5050771;28;75194;-61
2021/05/07 05:34:28;;;;;;;;;;;17.20;52.40;;;;;;5050872;28;75952;-62
2021/05/07 05:36:54;;;;;;;;;;;17.20;52.40;;;;;;5049244;28;76351;-61
2021/05/07 05:39:20;;;;;;;;;;;17.30;52.50;;;;;;5050762;28;75140;-62
2021/05/07 05:41:45;;;;;;;;;;;17.30;52.50;;;;;;5048481;28;77707;-62
2021/05/07 05:44:11;;;;;;;;;;;17.20;52.50;;;;;;5050611;27;76165;-64
2021/05/07 05:46:37;;;;;;;;;;;17.30;52.50;;;;;;5051065;28;75337;-61
2021/05/07 05:49:03;;;;;;;;;;;17.20;52.80;;;;;;5048551;28;77918;-62
2021/05/07 05:51:29;;;;;;;;;;;17.20;53.00;;;;;;5050135;27;75585;-64
2021/05/07 05:53:54;;;;;;;;;;;17.20;53.00;;;;;;5050615;28;75016;-65
2021/05/07 05:56:20;;;;;;;;;;;17.10;53.10;;;;;;5048547;28;75786;-68
2021/05/07 05:58:46;;;;;;;;;;;17.20;53.00;;;;;;5050710;27;75718;-66
2021/05/07 06:01:11;;;;;;;;;;;17.20;53.10;;;;;;5047905;28;77836;-65
2021/05/07 06:03:37;;;;;;;;;;;17.20;53.20;;;;;;5046302;28;78148;-65
2021/05/07 06:06:02;;;;;;;;;;;17.10;53.20;;;;;;5050112;27;76809;-66
2021/05/07 06:08:28;;;;;;;;;;;17.20;53.20;;;;;;5050837;28;74640;-67
2021/05/07 06:10:54;;;;;;;;;;;17.20;53.20;;;;;;5049484;27;75083;-64
2021/05/07 06:13:19;;;;;;;;;;;17.20;53.10;;;;;;5048962;28;77376;-66
2021/05/07 06:15:45;;;;;;;;;;;17.20;53.20;;;;;;5048942;28;77261;-60
2021/05/07 06:18:10;;;;;;;;;;;17.30;53.20;;;;;;5048429;28;77362;-62
2021/05/07 06:20:36;;;;;;;;;;;17.30;52.90;;;;;;5048651;28;76382;-65
2021/05/07 06:23:02;;;;;;;;;;;17.40;53.10;;;;;;5048928;28;77262;-65
2021/05/07 06:25:27;;;;;;;;;;;17.40;53.00;;;;;;5047825;28;77526;-64
2021/05/07 06:27:53;;;;;;;;;;;17.40;52.80;;;;;;5050443;28;76182;-67
2021/05/07 06:30:19;;;;;;;;;;;17.40;52.80;;;;;;5048510;28;76207;-68
2021/05/07 06:32:45;;;;;;;;;;;17.50;52.40;;;;;;5049390;28;75231;-68
2021/05/07 06:35:10;;;;;;;;;;;17.50;51.30;;;;;;5049138;27;76468;-67
2021/05/07 06:37:36;;;;;;;;;;;17.60;50.60;;;;;;5049822;27;75671;-68
2021/05/07 06:40:02;;;;;;;;;;;17.70;50.20;;;;;;5046790;28;75760;-67
2021/05/07 06:42:29;;;;;;;;;;;17.80;50.00;;;;;;5047480;28;76898;-67
2021/05/07 06:44:54;;;;;;;;;;;17.90;49.60;;;;;;5049183;28;75700;-67
2021/05/07 06:47:20;;;;;;;;;;;17.90;49.10;;;;;;5047787;28;75131;-67
2021/05/07 06:49:45;;;;;;;;;;;17.90;48.80;;;;;;5049606;28;75258;-67
2021/05/07 06:52:11;;;;;;;;;;;17.90;48.60;;;;;;5047853;28;76380;-67
2021/05/07 06:54:37;;;;;;;;;;;17.90;48.60;;;;;;5047285;27;75604;-67
2021/05/07 06:57:02;;;;;;;;;;;18.00;48.50;;;;;;5046924;28;76840;-67
2021/05/07 06:59:29;;;;;;;;;;;18.00;48.60;;;;;;5047868;28;76712;-67
2021/05/07 07:01:54;;;;;;;;;;;18.10;48.50;;;;;;5048183;27;75188;-67
2021/05/07 07:04:20;;;;;;;;;;;18.10;48.50;;;;;;5049435;27;74786;-67
2021/05/07 07:06:46;;;;;;;;;;;18.20;48.30;;;;;;5047498;28;77491;-67
2021/05/07 07:09:12;;;;;;;;;;;18.20;48.10;;;;;;5049715;27;76345;-67
2021/05/07 07:11:38;;;;;;;;;;;18.20;48.40;;;;;;5049137;27;74980;-67
2021/05/07 07:14:04;;;;;;;;;;;18.30;48.30;;;;;;5044850;28;75881;-67
2021/05/07 07:16:30;;;;;;;;;;;18.30;48.50;;;;;;5049004;27;74864;-67
2021/05/07 07:18:55;;;;;;;;;;;18.40;48.20;;;;;;5049291;27;75707;-67
2021/05/07 07:21:21;;;;;;;;;;;18.40;48.20;;;;;;5046609;28;77856;-67
2021/05/07 07:23:47;;;;;;;;;;;18.40;48.10;;;;;;5049692;27;74546;-67
2021/05/07 07:26:12;;;;;;;;;;;18.50;48.00;;;;;;5047592;28;77447;-67
2021/05/07 07:28:38;;;;;;;;;;;18.60;48.00;;;;;;5048902;27;75077;-67
2021/05/07 07:31:04;;;;;;;;;;;18.60;48.10;;;;;;5046530;27;77849;-64
2021/05/07 07:33:30;;;;;;;;;;;18.60;48.00;;;;;;5046784;28;75896;-67
2021/05/07 07:35:56;;;;;;;;;;;18.70;47.80;;;;;;5048624;27;75236;-67
2021/05/07 07:38:22;;;;;;;;;;;18.80;47.60;;;;;;5047777;28;76307;-67
2021/05/07 07:40:49;;;;;;;;;;;18.90;47.60;;;;;;5049528;27;75641;-67
2021/05/07 07:43:15;;;;;;;;;;;18.90;47.50;;;;;;5052073;27;75281;-66
2021/05/07 07:45:40;;;;;;;;;;;19.00;47.70;;;;;;5050899;28;76871;-67
2021/05/07 07:48:06;;;;;;;;;;;19.00;47.90;;;;;;5050091;28;78403;-67
2021/05/07 07:50:32;;;;;;;;;;;19.20;47.70;;;;;;5050649;28;78067;-67
2021/05/07 07:52:57;;;;;;;;;;;19.20;47.70;;;;;;5052822;28;76286;-70
2021/05/07 07:55:23;;;;;;;;;;;19.30;47.50;;;;;;5049395;27;77070;-67
2021/05/07 07:57:48;;;;;;;;;;;19.40;47.20;;;;;;5049882;28;75207;-67
2021/05/07 08:00:14;;;;;;;;;;;19.50;47.20;;;;;;5050473;28;74713;-67
2021/05/07 08:02:40;;;;;;;;;;;19.50;47.20;;;;;;5049805;28;76644;-68
2021/05/07 08:05:06;;;;;;;;;;;19.50;46.70;;;;;;5047232;28;77638;-67
2021/05/07 08:07:32;;;;;;;;;;;19.70;46.60;;;;;;5046738;28;76605;-67
2021/05/07 08:09:57;;;;;;;;;;;19.70;47.00;;;;;;5048071;28;77798;-68
2021/05/07 08:12:23;;;;;;;;;;;19.80;46.70;;;;;;5050033;28;75764;-67
2021/05/07 08:14:49;;;;;;;;;;;19.80;46.60;;;;;;5050020;28;76330;-68
2021/05/07 08:17:14;;;;;;;;;;;19.90;46.40;;;;;;5051475;27;74845;-69
2021/05/07 08:19:40;;;;;;;;;;;20.10;46.20;;;;;;5047852;27;75725;-67
2021/05/07 08:22:05;;;;;;;;;;;20.20;45.70;;;;;;5050294;28;74645;-67
2021/05/07 08:24:31;;;;;;;;;;;20.40;45.20;;;;;;5052254;28;75416;-67
2021/05/07 08:26:58;;;;;;;;;;;20.40;44.90;;;;;;5052545;27;75281;-67
2021/05/07 08:29:24;;;;;;;;;;;20.40;45.00;;;;;;5049976;28;77058;-67
2021/05/07 08:31:50;;;;;;;;;;;20.50;45.00;;;;;;5050195;28;77372;-66
2021/05/07 08:34:16;;;;;;;;;;;20.50;44.70;;;;;;5052103;27;76658;-66
2021/05/07 08:36:42;;;;;;;;;;;20.60;44.80;;;;;;5048797;27;76182;-66
2021/05/07 08:39:07;;;;;;;;;;;20.70;45.10;;;;;;5047374;28;77183;-66
2021/05/07 08:41:33;;;;;;;;;;;20.70;45.00;;;;;;5050205;27;74775;-66
2021/05/07 08:43:58;;;;;;;;;;;20.80;44.90;;;;;;5049843;28;77431;-66
2021/05/07 08:46:24;;;;;;;;;;;20.80;45.00;;;;;;5051676;28;75190;-66
2021/05/07 08:48:50;;;;;;;;;;;20.90;44.80;;;;;;5051698;28;76070;-67
2021/05/07 08:51:16;;;;;;;;;;;20.90;44.70;;;;;;5051060;27;75242;-67
2021/05/07 08:53:42;;;;;;;;;;;21.10;44.50;;;;;;5049342;28;77431;-66
2021/05/07 08:56:08;;;;;;;;;;;21.20;44.40;;;;;;5049604;28;77790;-66
2021/05/07 08:58:34;;;;;;;;;;;21.30;44.50;;;;;;5051404;27;76670;-66
2021/05/07 09:01:00;;;;;;;;;;;21.40;44.20;;;;;;5051530;27;74701;-66
2021/05/07 09:03:26;;;;;;;;;;;21.50;44.20;;;;;;5050207;28;75911;-67
2021/05/07 09:05:51;;;;;;;;;;;21.60;43.90;;;;;;5051129;27;75142;-67
2021/05/07 09:08:17;;;;;;;;;;;21.70;44.00;;;;;;5051689;27;75563;-66
2021/05/07 09:10:45;;;;;;;;;;;21.80;44.40;;;;;;5047022;28;75701;-66
2021/05/07 09:13:11;;;;;;;;;;;21.90;43.90;;;;;;5049225;28;76061;-66
2021/05/07 09:15:45;;;;;;;;;;;21.90;43.90;;;;;;5051497;28;75182;-65
2021/05/07 09:18:13;;;;;;;;;;;22.00;43.80;;;;;;5050388;28;94550;-66
2021/05/07 09:20:40;;;;;;;;;;;22.00;43.90;;;;;;5049527;28;77154;-65
2021/05/07 09:23:11;;;;;;;;;;;22.20;43.80;;;;;;5050431;28;76113;-65
2021/05/07 09:25:37;;;;;;;;;;;22.30;44.10;;;;;;5048977;28;76845;-67
2021/05/07 09:28:10;;;;;;;;;;;22.40;43.70;;;;;;5048443;28;78106;-65
2021/05/07 09:30:36;;;;;;;;;;;22.60;43.50;;;;;;5048255;27;76057;-64
2021/05/07 09:33:05;;;;;;;;;;;22.70;43.30;;;;;;5049064;28;79051;-64
2021/05/07 09:35:30;;;;;;;;;;;22.80;43.30;;;;;;5048816;28;77197;-65
2021/05/07 09:38:03;;;;;;;;;;;22.90;43.10;;;;;;5048875;28;77735;-65
2021/05/07 09:40:29;;;;;;;;;;;22.90;43.20;;;;;;5049509;28;75434;-65
2021/05/07 09:43:11;;;;;;;;;;;23.00;42.60;;;;;;5049619;28;76284;-66
2021/05/07 09:45:38;;;;;;;;;;;23.00;42.10;;;;;;5049666;28;76567;-65
2021/05/07 09:48:15;;;;;;;;;;;23.10;42.60;;;;;;5049819;27;75655;-66
2021/05/07 09:50:41;;;;;;;;;;;23.20;42.30;;;;;;5050794;27;75560;-66
2021/05/07 09:53:08;;;;;;;;;;;23.30;42.80;;;;;;5050707;27;75840;-68
2021/05/07 09:55:33;;;;;;;;;;;23.40;42.30;;;;;;5049928;28;76074;-67
2021/05/07 09:57:59;;;;;;;;;;;23.60;41.30;;;;;;5049122;28;76457;-67
2021/05/07 10:00:25;;;;;;;;;;;23.70;41.30;;;;;;5049229;28;76757;-66
2021/05/07 10:02:50;;;;;;;;;;;23.80;41.10;;;;;;5048118;27;77796;-66
2021/05/07 10:05:16;;;;;;;;;;;23.90;41.10;;;;;;5048120;28;76313;-67
2021/05/07 10:07:41;;;;;;;;;;;24.10;41.10;;;;;;5049891;27;75548;-67
2021/05/07 10:10:08;;;;;;;;;;;24.30;40.40;;;;;;5047156;27;76244;-67
2021/05/07 10:12:38;;;;;;;;;;;24.50;39.70;;;;;;5048085;28;75848;-67
2021/05/07 10:15:04;;;;;;;;;;;24.70;39.40;;;;;;5048647;28;75793;-68
2021/05/07 10:17:31;;;;;;;;;;;24.90;39.20;;;;;;5048436;28;75966;-67
2021/05/07 10:19:56;;;;;;;;;;;25.00;38.60;;;;;;5049858;27;76614;-67
2021/05/07 10:22:27;;;;;;;;;;;25.20;36.00;;;;;;5049522;28;75853;-67
2021/05/07 10:24:53;;;;;;;;;;;25.30;37.00;;;;;;5047436;28;77239;-67
2021/05/07 10:27:22;;;;;;;;;;;25.40;36.90;;;;;;5047272;28;78166;-67
2021/05/07 10:29:57;;;;;;;;;;;25.70;36.90;;;;;;5046584;28;76190;-67
2021/05/07 10:32:33;;;;;;;;;;;25.90;36.70;;;;;;5048245;28;74881;-66
2021/05/07 10:34:59;;;;;;;;;;;26.20;36.60;;;;;;5048626;27;75737;-66
2021/05/07 10:37:35;;;;;;;;;;;26.40;35.40;;;;;;5046033;28;76727;-67
2021/05/07 10:40:02;;;;;;;;;;;26.70;35.50;;;;;;5047057;28;78101;-67
2021/05/07 10:42:28;;;;;;;;;;;27.00;34.50;;;;;;5045326;27;77647;-66
2021/05/07 10:44:53;;;;;;;;;;;27.20;35.00;;;;;;5048059;28;75570;-64
2021/05/07 10:47:19;;;;;;;;;;;27.50;34.70;;;;;;5048283;28;77237;-65
2021/05/07 10:49:45;;;;;;;;;;;27.90;34.10;;;;;;5049481;27;76177;-65
2021/05/07 10:52:11;;;;;;;;;;;28.20;33.80;;;;;;5047546;28;75456;-66
2021/05/07 10:54:46;;;;;;;;;;;28.40;32.20;;;;;;5047802;28;77333;-66
2021/05/07 10:57:25;;;;;;;;;;;28.60;32.10;;;;;;5047858;28;77697;-66
2021/05/07 11:00:05;;;;;;;;;;;28.90;31.40;;;;;;5044899;27;76868;-66
2021/05/07 11:02:43;;;;;;;;;;;29.20;31.90;;;;;;5046142;27;77259;-65
2021/05/07 11:05:09;;;;;;;;;;;29.70;30.50;;;;;;5048198;28;74804;-65
2021/05/07 11:07:35;;;;;;;;;;;30.10;27.90;;;;;;5045655;28;76454;-66
2021/05/07 11:10:05;;;;;;;;;;;30.40;26.30;;;;;;5046221;28;76294;-64
2021/05/07 11:12:31;;;;;;;;;;;30.50;27.80;;;;;;5047530;28;76675;-67
2021/05/07 11:14:56;;;;;;;;;;;31.30;26.60;;;;;;5047243;27;77110;-66
2021/05/07 11:17:22;;;;;;;;;;;31.90;25.70;;;;;;5051835;28;77679;-66
2021/05/07 11:19:48;;;;;;;;;;;32.70;25.70;;;;;;5051266;28;76038;-66
2021/05/07 11:22:14;;;;;;;;;;;33.90;22.60;;;;;;5052597;28;75370;-65
2021/05/07 11:24:44;;;;;;;;;;;34.60;23.60;;;;;;5053403;28;75638;-66
2021/05/07 11:27:18;;;;;;;;;;;35.70;20.90;;;;;;5050862;28;77459;-68
2021/05/07 11:29:44;;;;;;;;;;;35.90;21.80;;;;;;5051535;28;77426;-65
2021/05/07 11:32:14;;;;;;;;;;;36.60;21.60;;;;;;5049150;27;76205;-65
2021/05/07 11:34:40;;;;;;;;;;;37.80;20.20;;;;;;5052439;28;76068;-65
2021/05/07 11:37:06;;;;;;;;;;;39.10;19.80;;;;;;5053175;27;75756;-66
2021/05/07 11:39:32;;;;;;;;;;;40.30;18.20;;;;;;5051388;28;77017;-67
2021/05/07 11:41:57;;;;;;;;;;;40.90;18.00;;;;;;5050556;28;78051;-67
2021/05/07 11:44:23;;;;;;;;;;;41.90;17.60;;;;;;5051844;27;75696;-67
2021/05/07 11:46:56;;;;;;;;;;;42.60;16.70;;;;;;5051601;28;77793;-67
2021/05/07 11:49:22;;;;;;;;;;;42.80;16.50;;;;;;5052472;28;75800;-66
2021/05/07 11:51:48;;;;;;;;;;;43.30;16.60;;;;;;5051337;28;75272;-68
2021/05/07 11:54:14;;;;;;;;;;;44.00;16.30;;;;;;5051629;27;76184;-65
2021/05/07 11:56:39;;;;;;;;;;;44.70;15.80;;;;;;5052507;28;75777;-67
2021/05/07 11:59:05;;;;;;;;;;;45.00;15.90;;;;;;5051366;28;76345;-66
2021/05/07 12:01:30;;;;;;;;;;;45.50;15.40;;;;;;5050308;28;74695;-65
2021/05/07 12:04:00;;;;;;;;;;;45.90;15.00;;;;;;5050422;28;77501;-68
2021/05/07 12:06:28;;;;;;;;;;;45.90;15.20;;;;;;5050889;28;77879;-70
2021/05/07 12:08:55;;;;;;;;;;;45.10;14.90;;;;;;5052056;27;75062;-67
2021/05/07 12:11:20;;;;;;;;;;;44.70;15.50;;;;;;5051070;28;75373;-66
2021/05/07 12:13:47;;;;;;;;;;;44.80;15.10;;;;;;5049816;27;74630;-67
2021/05/07 12:16:13;;;;;;;;;;;45.20;14.90;;;;;;5049832;27;76480;-66
2021/05/07 12:18:48;;;;;;;;;;;45.50;15.20;;;;;;5052289;28;76250;-66
2021/05/07 12:21:14;;;;;;;;;;;46.60;15.00;;;;;;5050166;28;77589;-67
2021/05/07 12:23:41;;;;;;;;;;;47.80;14.30;;;;;;5050301;28;78025;-66
2021/05/07 12:26:07;;;;;;;;;;;48.60;14.30;;;;;;5050079;27;78049;-65
2021/05/07 12:28:32;;;;;;;;;;;49.00;14.40;;;;;;5049120;28;77354;-67
2021/05/07 12:30:58;;;;;;;;;;;48.60;14.60;;;;;;5049093;28;77393;-67
2021/05/07 12:33:25;;;;;;;;;;;49.20;14.40;;;;;;5051664;28;75076;-67
2021/05/07 12:35:52;;;;;;;;;;;49.60;14.40;;;;;;5050601;28;75353;-66
2021/05/07 12:38:18;;;;;;;;;;;50.40;13.90;;;;;;5046730;27;77021;-67
2021/05/07 12:40:43;;;;;;;;;;;50.40;13.90;;;;;;5051760;28;77450;-67
2021/05/07 12:43:09;;;;;;;;;;;50.60;13.90;;;;;;5054846;28;75352;-68
2021/05/07 12:45:35;;;;;;;;;;;50.90;13.50;;;;;;5054765;28;75122;-68
2021/05/07 12:48:00;;;;;;;;;;;49.70;13.90;;;;;;5053102;28;74878;-68
2021/05/07 12:50:28;;;;;;;;;;;49.50;13.90;;;;;;5053033;28;77625;-69
2021/05/07 12:52:53;;;;;;;;;;;49.50;14.10;;;;;;5052509;28;75907;-68
2021/05/07 12:55:19;;;;;;;;;;;50.20;14.20;;;;;;5053270;28;78058;-68
2021/05/07 12:57:45;;;;;;;;;;;51.10;13.70;;;;;;5052781;28;76533;-65
2021/05/07 13:00:11;;;;;;;;;;;52.00;13.70;;;;;;5052740;28;77683;-68
2021/05/07 13:02:36;;;;;;;;;;;52.70;13.10;;;;;;5052671;28;77108;-67
2021/05/07 13:05:02;;;;;;;;;;;52.80;13.30;;;;;;5052585;28;77876;-67
2021/05/07 13:07:30;;;;;;;;;;;52.50;13.10;;;;;;5052713;28;75675;-67
2021/05/07 13:09:56;;;;;;;;;;;52.20;12.70;;;;;;5054310;28;75164;-67
2021/05/07 13:12:21;;;;;;;;;;;52.50;13.10;;;;;;5054110;28;74547;-67
2021/05/07 13:14:47;;;;;;;;;;;53.40;13.30;;;;;;5054505;28;74419;-67
2021/05/07 13:17:16;;;;;;;;;;;54.10;12.30;;;;;;5052476;28;75886;-67
2021/05/07 13:19:42;;;;;;;;;;;53.70;12.00;;;;;;5054239;28;75018;-67
2021/05/07 13:22:08;;;;;;;;;;;53.60;12.20;;;;;;5051900;28;74723;-67
2021/05/07 13:24:34;;;;;;;;;;;53.10;12.20;;;;;;5052234;28;77388;-67
2021/05/07 13:26:59;;;;;;;;;;;53.20;12.70;;;;;;5053670;28;75192;-67
2021/05/07 13:29:25;;;;;;;;;;;53.80;12.30;;;;;;5052088;28;77090;-67
2021/05/07 13:31:51;;;;;;;;;;;54.20;11.20;;;;;;5052217;28;74709;-67
2021/05/07 13:34:18;;;;;;;;;;;53.50;12.10;;;;;;5052088;28;75360;-68
2021/05/07 13:36:44;;;;;;;;;;;53.60;12.30;;;;;;5052186;28;74790;-67
2021/05/07 13:39:09;;;;;;;;;;;54.10;12.20;;;;;;5053457;27;74538;-67
2021/05/07 13:41:35;;;;;;;;;;;54.90;11.70;;;;;;5051735;28;74607;-67
2021/05/07 13:44:01;;;;;;;;;;;54.50;12.20;;;;;;5051897;28;75396;-67
2021/05/07 13:46:26;;;;;;;;;;;54.00;12.00;;;;;;5053584;28;75683;-67
2021/05/07 13:48:52;;;;;;;;;;;53.90;12.30;;;;;;5053513;28;75729;-67
2021/05/07 13:51:18;;;;;;;;;;;54.50;12.30;;;;;;5051879;28;78172;-67
2021/05/07 13:53:43;;;;;;;;;;;54.90;11.20;;;;;;5052223;28;76849;-64
2021/05/07 13:56:10;;;;;;;;;;;54.50;12.40;;;;;;5053355;28;75128;-66
2021/05/07 13:58:36;;;;;;;;;;;55.20;12.30;;;;;;5053969;28;75445;-66
2021/05/07 14:01:01;;;;;;;;;;;55.90;11.40;;;;;;5053215;28;75892;-67
2021/05/07 14:03:27;;;;;;;;;;;55.60;11.70;;;;;;5053725;28;74742;-67
2021/05/07 14:05:53;;;;;;;;;;;55.40;10.70;;;;;;5051290;28;75506;-67
2021/05/07 14:08:18;;;;;;;;;;;54.40;12.10;;;;;;5051585;28;77645;-67
2021/05/07 14:10:44;;;;;;;;;;;54.90;12.10;;;;;;5051639;28;75633;-67
2021/05/07 14:13:10;;;;;;;;;;;55.60;11.90;;;;;;5053090;28;75338;-67